Kingstowne, Virginia
Current Conditions -  °F | °C
As of 10:58 AM on Sunday 21 Dec 2014 (Local Time) from KDAA Reporting Station
Overcast Overcast  
Wind Chill: 38°   Ceiling: 7000
Heat Index: 38°   Visibility: 10mi
Dew Point: 23°   Wind: 3mph
Humidity: 55%   Direction: 350°N
Pressure: 30.37"   Gusts: NA
Location:  38.755°N, 77.1496°W
Report Text: KDAA 211558Z AUTO 35003KT 10SM OVC070 04/M05 A3037 RMK AO2 SLP288 T00351048
Loading
Personal Weather Stations






























Interactive Weather Map New forecast layout! Learn more

10-Day Weather Forecast

Advertisements
Track Severe Weather on mobile